Time;durP1;ratioP1;P1;durP2;ratioP2;P2;SDS_P1;SDS_P2;PMS_P1;PMS_P2;Temp;Humidity;BMP_temperature;BMP_pressure;BME280_temperature;BME280_humidity;BME280_pressure;Samples;Min_cycle;Max_cycle;Signal;HPM_P1;HPM_P2
2022/06/27 00:01:57;;;;;;;6.60;3.20;;;22.70;99.90;;;;;;5030273;28;20496;-86
2022/06/27 00:04:23;;;;;;;7.68;2.80;;;22.70;99.90;;;;;;5023151;28;20053;-88
2022/06/27 00:06:48;;;;;;;6.22;2.92;;;22.60;99.90;;;;;;5050231;28;20029;-90
2022/06/27 00:09:14;;;;;;;8.40;2.75;;;22.60;99.90;;;;;;5046529;28;20020;-92
2022/06/27 00:11:40;;;;;;;7.40;3.10;;;22.60;99.90;;;;;;5043489;28;20068;-90
2022/06/27 00:14:08;;;;;;;7.22;3.10;;;22.50;99.90;;;;;;5046897;28;20048;-88
2022/06/27 00:16:34;;;;;;;6.53;3.15;;;22.50;99.90;;;;;;5033029;28;20028;-89
2022/06/27 00:19:00;;;;;;;6.82;2.75;;;22.40;99.90;;;;;;5034123;28;20021;-89
2022/06/27 00:21:26;;;;;;;7.72;3.00;;;22.40;99.90;;;;;;5032823;28;20049;-88
2022/06/27 00:23:51;;;;;;;9.40;3.05;;;22.40;99.90;;;;;;5032544;28;20040;-88
2022/06/27 00:26:17;;;;;;;9.30;2.70;;;22.40;99.90;;;;;;5035150;28;20018;-89
2022/06/27 00:28:48;;;;;;;12.52;2.88;;;22.40;99.90;;;;;;5030374;28;20134;-89
2022/06/27 00:31:14;;;;;;;10.25;2.92;;;22.40;99.90;;;;;;5040005;28;20124;-89
2022/06/27 00:33:40;;;;;;;4.60;2.70;;;22.50;99.90;;;;;;5014107;28;20538;-90
2022/06/27 00:36:06;;;;;;;9.85;2.58;;;22.50;99.90;;;;;;5035976;28;20443;-89
2022/06/27 00:38:31;;;;;;;7.22;2.85;;;22.60;99.90;;;;;;5029937;28;20292;-89
2022/06/27 00:40:57;;;;;;;5.38;2.47;;;22.60;99.90;;;;;;5042005;28;20072;-89
2022/06/27 00:43:23;;;;;;;4.85;2.60;;;22.50;99.90;;;;;;5029571;28;20047;-89
2022/06/27 00:45:49;;;;;;;7.85;2.70;;;22.60;99.90;;;;;;5034867;28;20453;-89
2022/06/27 00:48:14;;;;;;;6.80;2.85;;;22.50;99.90;;;;;;5050890;28;20028;-88
2022/06/27 00:50:40;;;;;;;5.45;2.50;;;22.50;99.90;;;;;;5035333;28;20128;-90
2022/06/27 00:53:08;;;;;;;8.57;3.05;;;22.50;99.90;;;;;;5030766;28;20104;-89
2022/06/27 00:55:34;;;;;;;7.55;3.45;;;22.50;99.90;;;;;;5042955;28;20032;-89
2022/06/27 00:58:01;;;;;;;13.63;3.38;;;22.50;99.90;;;;;;5054679;28;20107;-88
2022/06/27 01:00:27;;;;;;;8.23;2.90;;;22.40;99.90;;;;;;5047161;28;20248;-88
2022/06/27 01:02:53;;;;;;;8.10;2.92;;;22.40;99.90;;;;;;5038518;28;20029;-89
2022/06/27 01:05:19;;;;;;;12.10;3.38;;;22.40;99.90;;;;;;5040349;28;20388;-88
2022/06/27 01:07:45;;;;;;;11.20;3.30;;;22.40;99.90;;;;;;5036291;28;20033;-89
2022/06/27 01:10:11;;;;;;;8.35;3.00;;;22.40;99.90;;;;;;5044201;28;20033;-89
2022/06/27 01:12:40;;;;;;;14.32;3.22;;;22.40;99.90;;;;;;5037571;28;20038;-87
2022/06/27 01:15:07;;;;;;;5.72;2.78;;;22.50;99.90;;;;;;5024631;28;20037;-87
2022/06/27 01:17:34;;;;;;;12.38;2.67;;;22.50;99.90;;;;;;5051169;28;20093;-87
2022/06/27 01:20:00;;;;;;;7.07;2.38;;;22.40;99.90;;;;;;5047879;28;20029;-88
2022/06/27 01:22:26;;;;;;;6.38;3.10;;;22.40;99.90;;;;;;5051405;28;20021;-89
2022/06/27 01:24:52;;;;;;;11.82;2.88;;;22.40;99.90;;;;;;5045305;28;20393;-89
2022/06/27 01:27:18;;;;;;;7.30;3.10;;;22.40;99.90;;;;;;5047058;28;20032;-88
2022/06/27 01:29:44;;;;;;;8.40;3.00;;;22.40;99.90;;;;;;5048144;28;20083;-89
2022/06/27 01:32:09;;;;;;;6.38;2.85;;;22.40;99.90;;;;;;5042118;28;20035;-89
2022/06/27 01:34:36;;;;;;;4.80;2.47;;;22.50;99.90;;;;;;5038421;28;20051;-89
2022/06/27 01:37:03;;;;;;;8.50;3.38;;;22.40;99.90;;;;;;5052302;28;20040;-89
2022/06/27 01:39:29;;;;;;;12.95;3.25;;;22.40;99.90;;;;;;5048854;28;20052;-89
2022/06/27 01:42:00;;;;;;;5.15;2.97;;;22.30;99.90;;;;;;5038651;28;20026;-89
2022/06/27 01:44:28;;;;;;;7.00;2.90;;;22.20;99.90;;;;;;5034345;28;20553;-88
2022/06/27 01:46:55;;;;;;;8.07;2.92;;;22.10;99.90;;;;;;5035636;28;20464;-89
2022/06/27 01:49:20;;;;;;;5.68;2.70;;;22.10;99.90;;;;;;5038321;28;20431;-89
2022/06/27 01:51:48;;;;;;;7.20;3.67;;;22.10;99.90;;;;;;5050743;28;20021;-86
2022/06/27 01:54:16;;;;;;;7.93;3.05;;;22.00;99.90;;;;;;5046571;28;20078;-88
2022/06/27 01:56:46;;;;;;;8.00;2.88;;;21.90;99.90;;;;;;5036620;28;20087;-89
2022/06/27 01:59:14;;;;;;;4.97;2.50;;;21.90;99.90;;;;;;5036406;28;20021;-90
2022/06/27 02:01:43;;;;;;;13.07;2.70;;;21.90;99.90;;;;;;5031569;28;20026;-88
2022/06/27 02:04:10;;;;;;;11.02;3.05;;;21.90;99.90;;;;;;5023304;28;20110;-89
2022/06/27 02:06:36;;;;;;;9.35;2.88;;;21.90;99.90;;;;;;5047496;28;20028;-88
2022/06/27 02:09:05;;;;;;;7.60;3.72;;;21.90;99.90;;;;;;5047653;28;20025;-88
2022/06/27 02:11:31;;;;;;;7.53;2.45;;;21.90;99.90;;;;;;5045271;28;20488;-90
2022/06/27 02:13:59;;;;;;;6.45;2.60;;;21.80;99.90;;;;;;5048367;28;20045;-88
2022/06/27 02:16:26;;;;;;;7.78;2.83;;;21.80;99.90;;;;;;5032583;28;20104;-89
2022/06/27 02:18:52;;;;;;;7.82;2.83;;;21.80;99.90;;;;;;5033709;28;20403;-90
2022/06/27 02:21:26;;;;;;;7.43;3.05;;;21.80;99.90;;;;;;5047819;28;20147;-89
2022/06/27 02:23:53;;;;;;;7.13;3.15;;;21.80;99.90;;;;;;5049488;28;20026;-89
2022/06/27 02:26:28;;;;;;;10.73;3.45;;;21.80;99.90;;;;;;5049078;28;20082;-90
2022/06/27 02:28:55;;;;;;;8.27;2.92;;;21.80;99.90;;;;;;5048652;28;20032;-90
2022/06/27 02:31:22;;;;;;;14.68;3.05;;;21.90;99.90;;;;;;5037986;28;20116;-88
2022/06/27 02:33:50;;;;;;;7.78;2.75;;;21.80;99.90;;;;;;5032742;28;20045;-88
2022/06/27 02:36:19;;;;;;;7.75;2.75;;;21.80;99.90;;;;;;5047057;28;20072;-89
2022/06/27 02:38:48;;;;;;;7.60;3.15;;;21.80;99.90;;;;;;5049614;28;20120;-90
2022/06/27 02:41:15;;;;;;;6.63;2.63;;;21.80;99.90;;;;;;5040285;28;20026;-88
2022/06/27 02:43:44;;;;;;;8.20;3.05;;;21.80;99.90;;;;;;5033467;28;20079;-88
2022/06/27 02:46:11;;;;;;;5.82;2.75;;;21.80;99.90;;;;;;5036863;28;20095;-88
2022/06/27 02:48:39;;;;;;;7.18;2.67;;;21.80;99.90;;;;;;5033325;28;20029;-89
2022/06/27 02:51:13;;;;;;;6.60;2.90;;;21.80;99.90;;;;;;5047148;28;20102;-89
2022/06/27 02:54:09;;;;;;;10.63;3.40;;;21.90;99.90;;;;;;5050146;28;20025;-90
2022/06/27 02:56:39;;;;;;;5.70;2.78;;;21.90;99.90;;;;;;5034510;28;20034;-90
2022/06/27 02:59:28;;;;;;;15.02;3.03;;;21.90;99.90;;;;;;5033326;28;20040;-88
2022/06/27 03:01:56;;;;;;;8.45;2.70;;;21.80;99.90;;;;;;5042235;28;20040;-89
2022/06/27 03:04:22;;;;;;;9.05;3.05;;;21.80;99.90;;;;;;5036809;28;20017;-89
2022/06/27 03:06:49;;;;;;;7.57;2.58;;;21.80;99.90;;;;;;5033664;28;20029;-89
2022/06/27 03:09:16;;;;;;;6.85;2.88;;;21.80;99.90;;;;;;5035920;28;20384;-88
2022/06/27 03:11:43;;;;;;;10.85;2.75;;;21.80;99.90;;;;;;5041170;28;20029;-91
2022/06/27 03:14:09;;;;;;;7.50;2.45;;;21.80;99.90;;;;;;5033066;28;20558;-91
2022/06/27 03:16:34;;;;;;;11.45;2.50;;;21.80;99.90;;;;;;5042700;28;20032;-90
2022/06/27 03:19:01;;;;;;;11.35;3.03;;;21.80;99.90;;;;;;5033748;28;20025;-89
2022/06/27 03:21:26;;;;;;;7.75;2.90;;;21.80;99.90;;;;;;5037761;28;20480;-89
2022/06/27 03:23:54;;;;;;;5.65;2.70;;;21.80;99.90;;;;;;5033883;28;20033;-89
2022/06/27 03:26:20;;;;;;;6.50;2.88;;;21.80;99.90;;;;;;5043761;28;20021;-89
2022/06/27 03:28:46;;;;;;;6.07;2.58;;;21.80;99.90;;;;;;5031712;28;20116;-88
2022/06/27 03:31:13;;;;;;;11.50;3.03;;;21.80;99.90;;;;;;5042252;28;20018;-87
2022/06/27 03:33:39;;;;;;;10.20;3.15;;;21.80;99.90;;;;;;5016063;28;20086;-87
2022/06/27 03:36:06;;;;;;;7.30;3.00;;;21.90;99.90;;;;;;5043774;28;20025;-88
2022/06/27 03:38:32;;;;;;;5.45;2.95;;;21.90;99.90;;;;;;5030740;28;20029;-87
2022/06/27 03:40:58;;;;;;;5.78;3.15;;;22.00;99.90;;;;;;5046170;28;20388;-88
2022/06/27 03:43:24;;;;;;;8.30;2.80;;;22.10;99.90;;;;;;5050282;28;20017;-90
2022/06/27 03:45:53;;;;;;;10.05;2.70;;;22.20;99.90;;;;;;5043331;28;20029;-89
2022/06/27 03:51:03;;;;;;;10.90;2.92;;;22.30;99.90;;;;;;5038305;28;20083;-88
2022/06/27 03:53:29;;;;;;;9.98;2.60;;;22.30;99.90;;;;;;5031915;28;20488;-88
2022/06/27 03:55:54;;;;;;;9.70;2.70;;;22.30;99.90;;;;;;5036353;28;20143;-90
2022/06/27 03:58:20;;;;;;;10.25;2.78;;;22.30;99.90;;;;;;5050918;28;20052;-88
2022/06/27 04:00:46;;;;;;;16.73;2.72;;;22.40;99.90;;;;;;5044631;28;20037;-90
2022/06/27 04:03:12;;;;;;;10.93;3.25;;;22.40;99.90;;;;;;5032521;28;20514;-88
2022/06/27 04:05:37;;;;;;;9.82;2.90;;;22.50;99.90;;;;;;5037187;28;20056;-88
2022/06/27 04:08:03;;;;;;;12.20;2.90;;;22.60;99.90;;;;;;5031319;28;20026;-88
2022/06/27 04:10:29;;;;;;;8.18;2.47;;;22.60;99.90;;;;;;5042291;28;20025;-88
2022/06/27 04:12:55;;;;;;;7.80;2.45;;;22.70;99.90;;;;;;5031954;28;20048;-88
2022/06/27 04:15:21;;;;;;;10.07;2.38;;;22.70;99.90;;;;;;5037404;28;20532;-89
2022/06/27 04:17:46;;;;;;;5.65;2.50;;;22.70;99.90;;;;;;5049301;28;20040;-85
2022/06/27 04:20:12;;;;;;;6.65;2.30;;;22.70;99.90;;;;;;5046207;28;20025;-88
2022/06/27 04:22:38;;;;;;;6.53;2.40;;;22.70;99.90;;;;;;5049480;28;20028;-89
2022/06/27 04:25:05;;;;;;;7.25;2.47;;;22.90;99.90;;;;;;5046410;28;20026;-91
2022/06/27 04:27:30;;;;;;;7.57;2.47;;;22.90;99.90;;;;;;5049772;28;20017;-90
2022/06/27 04:29:56;;;;;;;8.63;2.38;;;23.00;99.90;;;;;;5042843;28;20022;-89
2022/06/27 04:32:25;;;;;;;7.28;2.72;;;23.10;99.90;;;;;;5026034;28;20061;-91
2022/06/27 04:34:51;;;;;;;7.90;2.28;;;23.10;99.90;;;;;;5031639;28;20088;-92
2022/06/27 04:37:18;;;;;;;6.53;2.13;;;23.20;99.90;;;;;;5035759;28;20077;-92
2022/06/27 04:39:44;;;;;;;10.90;2.70;;;23.30;99.90;;;;;;5043377;28;20531;-93
2022/06/27 04:42:10;;;;;;;35.15;3.28;;;23.40;99.90;;;;;;5050621;28;20113;-93
2022/06/27 04:44:41;;;;;;;7.22;2.38;;;23.50;99.90;;;;;;5049084;28;20107;-92
2022/06/27 04:47:08;;;;;;;13.15;2.67;;;23.50;99.90;;;;;;5048493;28;20468;-91
2022/06/27 04:49:39;;;;;;;8.90;2.58;;;23.60;99.90;;;;;;5051008;28;20094;-90
2022/06/27 04:52:08;;;;;;;5.90;2.45;;;23.70;99.90;;;;;;5052300;28;20083;-92
2022/06/27 04:54:36;;;;;;;10.30;2.55;;;23.80;99.90;;;;;;5047324;28;20048;-93
2022/06/27 04:57:03;;;;;;;10.48;2.55;;;23.80;99.90;;;;;;5053362;28;20045;-90
2022/06/27 04:59:29;;;;;;;8.52;2.85;;;23.90;99.90;;;;;;5050620;28;20021;-93
2022/06/27 05:01:57;;;;;;;9.98;2.40;;;24.00;99.90;;;;;;5035748;28;20388;-92
2022/06/27 05:04:23;;;;;;;10.68;3.00;;;24.10;99.90;;;;;;5026056;28;20037;-94
2022/06/27 05:06:50;;;;;;;8.70;2.60;;;24.10;99.90;;;;;;5052337;28;20364;-94
2022/06/27 05:09:17;;;;;;;6.82;2.28;;;24.30;99.90;;;;;;5045765;28;20458;-89
2022/06/27 05:11:45;;;;;;;9.95;2.92;;;24.30;99.90;;;;;;5040749;28;20116;-92
2022/06/27 05:14:11;;;;;;;6.20;2.50;;;24.40;99.90;;;;;;5039451;28;20456;-91
2022/06/27 05:16:37;;;;;;;12.77;2.50;;;24.50;99.90;;;;;;5051731;28;20108;-94
2022/06/27 05:19:03;;;;;;;7.55;2.60;;;24.60;99.90;;;;;;5047806;28;20036;-93
2022/06/27 05:21:29;;;;;;;15.80;3.33;;;24.70;99.90;;;;;;5040076;28;20018;-92
2022/06/27 05:23:55;;;;;;;11.27;2.83;;;24.70;99.90;;;;;;5036292;28;20019;-90
2022/06/27 05:26:21;;;;;;;14.27;2.72;;;24.80;99.90;;;;;;5050633;28;20466;-88
2022/06/27 05:28:47;;;;;;;8.15;2.85;;;24.90;99.90;;;;;;5050749;28;20096;-89
2022/06/27 05:31:12;;;;;;;15.85;2.78;;;25.10;99.90;;;;;;5044475;28;20399;-90
2022/06/27 05:33:38;;;;;;;11.30;3.10;;;25.10;99.90;;;;;;5016914;28;20025;-90
2022/06/27 05:36:05;;;;;;;17.02;3.38;;;25.30;99.90;;;;;;5041857;28;20024;-89
2022/06/27 05:38:31;;;;;;;18.85;3.22;;;25.40;99.90;;;;;;5051929;28;20017;-89
2022/06/27 05:41:01;;;;;;;11.02;3.15;;;25.50;99.90;;;;;;5045359;28;20029;-90
2022/06/27 05:43:28;;;;;;;13.50;2.92;;;25.60;99.90;;;;;;5034435;28;20473;-89
2022/06/27 05:45:54;;;;;;;14.43;2.92;;;25.70;99.90;;;;;;5045032;28;20499;-90
2022/06/27 05:48:20;;;;;;;14.52;3.38;;;25.80;99.90;;;;;;5053372;28;20021;-90
2022/06/27 05:50:46;;;;;;;10.32;3.00;;;25.80;99.90;;;;;;5039205;28;20395;-90
2022/06/27 05:53:12;;;;;;;7.63;2.80;;;26.00;99.90;;;;;;5033003;28;20048;-90
2022/06/27 05:55:40;;;;;;;11.38;3.40;;;26.10;99.90;;;;;;5041636;28;20483;-92
2022/06/27 05:58:08;;;;;;;5.25;2.03;;;26.10;99.90;;;;;;5054088;28;20099;-91
2022/06/27 06:00:35;;;;;;;10.18;2.88;;;26.30;99.90;;;;;;5041218;28;20030;-90
2022/06/27 06:03:02;;;;;;;20.73;2.97;;;26.30;99.90;;;;;;5014483;28;20385;-90
2022/06/27 06:05:29;;;;;;;11.02;3.13;;;26.40;99.90;;;;;;5039052;28;20021;-91
2022/06/27 06:08:06;;;;;;;8.77;2.58;;;26.50;99.90;;;;;;5036240;28;20029;-91
2022/06/27 06:10:33;;;;;;;19.88;3.60;;;26.60;99.90;;;;;;5034415;28;20017;-90
2022/06/27 06:13:01;;;;;;;17.80;3.17;;;26.70;99.90;;;;;;5041054;28;20508;-90
2022/06/27 06:15:28;;;;;;;14.52;3.03;;;26.80;99.90;;;;;;5041515;28;20064;-91
2022/06/27 06:17:56;;;;;;;12.23;3.22;;;26.90;99.90;;;;;;5033698;28;20022;-91
2022/06/27 06:20:22;;;;;;;17.60;3.13;;;27.00;99.90;;;;;;5042863;28;20543;-91
2022/06/27 06:22:48;;;;;;;13.50;3.05;;;27.00;99.90;;;;;;5035443;28;20109;-92
2022/06/27 06:25:14;;;;;;;12.25;3.30;;;27.10;99.90;;;;;;5037629;28;20116;-91
2022/06/27 06:27:40;;;;;;;25.85;3.13;;;27.30;99.90;;;;;;5045514;28;20078;-91
2022/06/27 06:30:07;;;;;;;14.63;3.28;;;27.30;99.90;;;;;;5037647;28;20049;-88
2022/06/27 06:32:36;;;;;;;15.43;3.05;;;27.40;99.90;;;;;;5033638;28;20100;-88
2022/06/27 06:35:05;;;;;;;8.57;2.72;;;27.40;99.90;;;;;;5040012;28;20040;-88
2022/06/27 06:37:32;;;;;;;10.07;3.28;;;27.50;99.90;;;;;;5051341;28;20116;-90
2022/06/27 06:39:58;;;;;;;10.32;2.58;;;27.60;99.90;;;;;;5045173;28;20079;-87
2022/06/27 06:42:24;;;;;;;18.17;3.22;;;27.70;99.90;;;;;;5037697;28;20021;-87
2022/06/27 06:44:52;;;;;;;19.92;3.60;;;27.80;99.90;;;;;;5037496;28;20116;-89
2022/06/27 06:47:19;;;;;;;14.13;2.88;;;27.90;99.90;;;;;;5031823;28;20018;-88
2022/06/27 06:49:46;;;;;;;16.63;2.80;;;28.00;99.90;;;;;;5037987;28;20028;-87
2022/06/27 06:52:12;;;;;;;23.13;3.00;;;28.10;99.90;;;;;;5032057;28;20080;-87
2022/06/27 06:54:41;;;;;;;14.75;2.42;;;28.20;99.90;;;;;;5036345;28;20044;-86
2022/06/27 06:57:09;;;;;;;20.58;2.85;;;28.30;99.90;;;;;;5040632;28;20468;-86
2022/06/27 06:59:36;;;;;;;8.63;3.00;;;28.40;99.90;;;;;;5033096;28;20030;-88
2022/06/27 07:02:03;;;;;;;9.95;3.20;;;28.60;99.90;;;;;;5032730;28;20392;-88
2022/06/27 07:04:29;;;;;;;35.92;4.18;;;28.80;99.80;;;;;;5030283;28;20408;-89
2022/06/27 07:06:56;;;;;;;7.38;2.35;;;28.90;99.90;;;;;;5044013;28;20582;-86
2022/06/27 07:09:21;;;;;;;11.65;2.17;;;29.20;99.10;;;;;;5025628;28;20106;-86
2022/06/27 07:11:47;;;;;;;6.25;1.90;;;29.30;97.90;;;;;;5040705;28;20299;-86
2022/06/27 07:14:15;;;;;;;9.30;2.10;;;29.40;98.60;;;;;;5034784;28;20511;-84
2022/06/27 07:16:42;;;;;;;8.13;1.65;;;29.50;96.70;;;;;;5036613;28;20586;-85
2022/06/27 07:19:08;;;;;;;9.75;3.00;;;29.50;97.50;;;;;;5039500;28;20442;-84
2022/06/27 07:21:35;;;;;;;12.93;2.83;;;29.60;97.60;;;;;;5039302;28;20118;-84
2022/06/27 07:24:01;;;;;;;18.88;2.85;;;29.50;99.50;;;;;;5037980;28;20477;-85
2022/06/27 07:26:29;;;;;;;15.73;2.63;;;29.50;99.90;;;;;;5047005;28;20430;-85
2022/06/27 07:28:56;;;;;;;12.68;2.78;;;29.50;99.90;;;;;;5046393;28;20118;-84
2022/06/27 07:31:22;;;;;;;9.52;2.83;;;29.40;99.90;;;;;;5040169;28;20430;-85
2022/06/27 07:33:51;;;;;;;11.98;2.25;;;29.40;99.90;;;;;;5040970;28;20500;-85
2022/06/27 07:36:19;;;;;;;10.73;2.22;;;29.40;99.90;;;;;;5041393;28;20094;-84
2022/06/27 07:38:46;;;;;;;8.10;2.42;;;29.40;99.10;;;;;;5029384;28;20041;-85
2022/06/27 07:41:14;;;;;;;11.93;2.50;;;29.50;98.70;;;;;;5043236;28;20017;-85
2022/06/27 07:43:41;;;;;;;14.15;2.60;;;29.60;99.60;;;;;;5049051;28;20535;-85
2022/06/27 07:46:07;;;;;;;7.80;2.28;;;29.60;97.30;;;;;;5036863;28;20373;-85
2022/06/27 07:48:33;;;;;;;14.18;2.45;;;29.80;99.80;;;;;;5031913;28;20021;-84
2022/06/27 07:51:00;;;;;;;12.85;2.78;;;29.90;99.10;;;;;;5036398;28;20026;-84
2022/06/27 07:53:26;;;;;;;19.58;2.63;;;30.00;98.90;;;;;;5030190;28;20391;-84
2022/06/27 07:55:57;;;;;;;9.30;2.65;;;30.00;99.90;;;;;;5044770;28;20022;-86
2022/06/27 07:58:33;;;;;;;9.55;2.20;;;30.00;99.90;;;;;;5045520;28;20045;-84
2022/06/27 08:01:02;;;;;;;20.02;2.97;;;30.00;98.70;;;;;;5035303;28;20035;-85
2022/06/27 08:03:39;;;;;;;9.68;3.28;;;30.10;99.20;;;;;;5050000;28;20467;-84
2022/06/27 08:06:22;;;;;;;12.80;2.65;;;30.10;97.90;;;;;;5033360;28;20025;-85
2022/06/27 08:08:54;;;;;;;11.00;3.15;;;30.30;99.40;;;;;;5017288;28;20653;-83
2022/06/27 08:11:27;;;;;;;9.47;3.03;;;30.40;97.60;;;;;;5035062;28;20056;-85
2022/06/27 08:13:55;;;;;;;10.30;2.80;;;30.40;99.20;;;;;;5032071;28;20297;-86
2022/06/27 08:16:25;;;;;;;10.57;2.97;;;30.50;99.40;;;;;;5034191;28;20424;-84
2022/06/27 08:18:52;;;;;;;12.65;2.95;;;30.70;98.00;;;;;;5032741;28;20475;-84
2022/06/27 08:21:21;;;;;;;14.32;3.60;;;30.70;99.90;;;;;;5035888;28;20030;-84
2022/06/27 08:23:51;;;;;;;12.95;3.38;;;30.50;99.90;;;;;;5032466;28;20395;-85
2022/06/27 08:26:21;;;;;;;13.05;3.13;;;30.40;99.90;;;;;;5029003;28;20025;-85
2022/06/27 08:28:47;;;;;;;11.57;2.75;;;30.50;99.20;;;;;;5032853;28;20021;-84
2022/06/27 08:31:14;;;;;;;19.35;3.33;;;30.50;99.90;;;;;;5044527;28;20051;-84
2022/06/27 08:33:41;;;;;;;10.80;2.58;;;30.50;99.90;;;;;;5047761;28;20091;-85
2022/06/27 08:36:07;;;;;;;10.52;3.17;;;30.50;99.90;;;;;;5035932;28;20024;-87
2022/06/27 08:38:39;;;;;;;10.93;2.90;;;30.40;99.90;;;;;;5015420;28;20034;-86
2022/06/27 08:41:05;;;;;;;9.38;2.78;;;30.30;99.90;;;;;;5038595;28;20017;-84
2022/06/27 08:43:31;;;;;;;13.88;2.63;;;30.30;99.90;;;;;;5046140;28;20095;-83
2022/06/27 08:45:58;;;;;;;9.27;2.45;;;30.10;99.90;;;;;;5032923;28;20630;-84
2022/06/27 08:48:24;;;;;;;7.25;2.15;;;30.10;99.90;;;;;;5027844;28;20021;-83
2022/06/27 08:50:50;;;;;;;12.13;2.70;;;30.10;98.50;;;;;;5041738;28;20036;-84
2022/06/27 08:53:17;;;;;;;13.32;2.80;;;30.10;99.90;;;;;;5047308;28;20480;-85
2022/06/27 08:55:47;;;;;;;11.98;2.88;;;30.20;99.90;;;;;;5040226;28;20028;-85
2022/06/27 08:58:14;;;;;;;9.90;2.80;;;30.30;99.90;;;;;;5047807;28;20515;-85
2022/06/27 09:00:45;;;;;;;17.25;3.10;;;30.50;99.90;;;;;;5039638;28;20033;-84
2022/06/27 09:03:21;;;;;;;8.70;2.42;;;30.70;99.90;;;;;;5047529;28;20020;-85
2022/06/27 09:05:58;;;;;;;15.38;2.55;;;30.70;99.90;;;;;;5039574;28;20037;-84
2022/06/27 09:08:27;;;;;;;9.07;2.33;;;30.90;99.00;;;;;;5031518;28;20029;-85
2022/06/27 09:10:54;;;;;;;15.45;2.67;;;30.90;99.10;;;;;;5036214;28;20031;-83
2022/06/27 09:13:20;;;;;;;9.80;2.75;;;30.90;99.90;;;;;;5026919;28;20599;-84
2022/06/27 09:16:04;;;;;;;10.88;2.58;;;30.90;99.90;;;;;;5040255;28;20041;-84
2022/06/27 09:18:36;;;;;;;9.82;2.50;;;30.90;98.80;;;;;;5048516;28;20032;-85
2022/06/27 09:21:03;;;;;;;;;;;31.00;98.60;;;;;;5044609;28;20021;-85
2022/06/27 09:23:49;;;;;;;12.00;3.08;;;30.90;99.90;;;;;;5047644;28;19959;-84
2022/06/27 09:26:19;;;;;;;15.70;3.08;;;30.70;99.90;;;;;;5044550;28;20043;-84
2022/06/27 09:28:45;;;;;;;10.70;3.10;;;30.70;99.90;;;;;;5046388;28;20215;-86
2022/06/27 09:31:32;;;;;;;17.23;3.05;;;30.70;99.90;;;;;;5044996;28;20025;-86
2022/06/27 09:34:18;;;;;;;14.18;3.40;;;30.50;99.90;;;;;;5042269;28;20067;-85
2022/06/27 09:36:54;;;;;;;10.13;3.08;;;30.60;99.90;;;;;;5031864;28;20409;-89
2022/06/27 09:39:28;;;;;;;12.50;3.28;;;30.40;99.90;;;;;;5022047;28;20032;-88
2022/06/27 09:42:02;;;;;;;11.50;2.80;;;30.30;99.90;;;;;;5037286;28;20037;-85
2022/06/27 09:44:38;;;;;;;13.27;3.10;;;30.40;99.90;;;;;;5032598;28;20040;-84
2022/06/27 09:47:18;;;;;;;17.25;3.58;;;30.60;99.90;;;;;;5036623;28;20418;-86
2022/06/27 09:49:49;;;;;;;11.00;3.17;;;30.80;99.90;;;;;;5042497;28;20025;-85
2022/06/27 09:52:20;;;;;;;10.27;2.95;;;30.90;99.90;;;;;;5048479;28;20529;-85
2022/06/27 09:54:48;;;;;;;16.95;3.35;;;31.00;99.90;;;;;;5043555;28;20110;-84
2022/06/27 09:57:16;;;;;;;8.95;2.92;;;31.10;99.90;;;;;;5046595;28;20025;-85
2022/06/27 09:59:44;;;;;;;10.68;3.13;;;31.10;99.90;;;;;;5042341;28;20048;-85
2022/06/27 10:02:11;;;;;;;14.75;3.00;;;31.10;99.90;;;;;;5048648;28;20426;-84
2022/06/27 10:04:37;;;;;;;11.07;3.20;;;31.00;99.90;;;;;;5043363;28;20423;-86
2022/06/27 10:07:07;;;;;;;13.93;3.83;;;31.10;99.90;;;;;;5043881;28;20456;-87
2022/06/27 10:09:36;;;;;;;8.48;2.10;;;31.30;99.20;;;;;;5032177;28;20057;-87
2022/06/27 10:12:23;;;;;;;8.13;2.20;;;31.30;97.90;;;;;;5037618;28;20056;-85
2022/06/27 10:15:11;;;;;;;11.07;5.45;;;31.20;97.40;;;;;;5036214;28;20048;-85
2022/06/27 10:17:44;;;;;;;13.82;4.40;;;31.30;95.80;;;;;;5047890;28;20024;-86
2022/06/27 10:20:26;;;;;;;5.18;2.10;;;31.50;96.30;;;;;;5041949;28;20056;-85
2022/06/27 10:23:31;;;;;;;10.60;2.20;;;31.60;95.70;;;;;;5046731;28;20028;-85
2022/06/27 10:25:58;;;;;;;10.15;4.00;;;31.90;95.90;;;;;;5043865;28;20448;-90
2022/06/27 10:28:24;;;;;;;20.17;2.50;;;32.00;94.60;;;;;;5047962;28;20044;-85
2022/06/27 10:30:53;;;;;;;6.35;2.42;;;32.00;95.20;;;;;;5042035;28;20033;-85
2022/06/27 10:33:25;;;;;;;8.20;2.05;;;32.10;95.80;;;;;;5048640;28;20021;-85
2022/06/27 10:36:02;;;;;;;11.48;2.10;;;32.20;95.40;;;;;;5034361;28;20029;-85
2022/06/27 10:38:43;;;;;;;6.85;1.90;;;31.90;95.00;;;;;;5014268;28;20042;-85
2022/06/27 10:41:10;;;;;;;4.90;2.05;;;31.80;94.20;;;;;;5038506;28;20030;-86
2022/06/27 10:43:36;;;;;;;6.35;2.00;;;31.60;95.10;;;;;;5028531;28;21312;-86
2022/06/27 10:46:22;;;;;;;5.15;1.98;;;31.50;95.80;;;;;;5043150;28;20025;-84
2022/06/27 10:48:48;;;;;;;7.55;2.10;;;31.30;97.20;;;;;;5040500;28;20071;-86
2022/06/27 10:51:34;;;;;;;9.20;3.33;;;31.10;96.90;;;;;;5044282;28;20057;-87
2022/06/27 10:54:06;;;;;;;7.60;2.70;;;30.80;97.40;;;;;;5043082;28;20485;-89
2022/06/27 10:56:35;;;;;;;4.00;2.70;;;30.50;97.50;;;;;;5041733;28;20038;-95
2022/06/27 10:59:01;;;;;;;3.55;1.50;;;30.40;99.90;;;;;;5035147;28;20033;-93
2022/06/27 11:01:28;;;;;;;5.70;2.13;;;30.30;99.90;;;;;;5041329;28;20368;-90
2022/06/27 11:03:54;;;;;;;5.07;2.00;;;30.10;99.90;;;;;;5048719;28;20067;-87
2022/06/27 11:06:21;;;;;;;7.60;1.83;;;30.00;99.90;;;;;;5042849;28;20495;-87
2022/06/27 11:08:48;;;;;;;8.85;2.22;;;30.00;99.90;;;;;;5031222;28;20024;-85
2022/06/27 11:11:19;;;;;;;4.30;2.00;;;30.10;99.90;;;;;;5039043;28;20032;-87
2022/06/27 11:13:46;;;;;;;9.30;2.67;;;30.10;99.90;;;;;;5029255;28;20447;-85
2022/06/27 11:16:18;;;;;;;10.32;2.97;;;30.30;99.90;;;;;;5032172;28;20508;-84
2022/06/27 11:18:47;;;;;;;6.20;2.65;;;30.50;99.90;;;;;;5029152;28;20020;-85
2022/06/27 11:21:15;;;;;;;12.40;3.30;;;30.40;99.90;;;;;;5042512;28;20095;-84
2022/06/27 11:23:48;;;;;;;6.47;2.22;;;30.40;99.90;;;;;;5045832;28;20049;-86
2022/06/27 11:26:14;;;;;;;8.65;2.40;;;30.50;99.90;;;;;;5042147;28;20039;-85
2022/06/27 11:34:13;;;;;;;5.32;2.17;;;30.40;99.90;;;;;;5031161;28;20052;-85
2022/06/27 11:36:39;;;;;;;5.68;1.90;;;30.70;99.90;;;;;;5043904;28;20108;-86
2022/06/27 11:39:05;;;;;;;9.32;3.17;;;30.90;99.90;;;;;;5030000;28;20102;-85
2022/06/27 11:41:36;;;;;;;4.07;2.20;;;31.10;99.90;;;;;;5038383;28;20730;-86
2022/06/27 11:44:05;;;;;;;8.30;2.55;;;31.20;99.90;;;;;;5027987;28;20065;-85
2022/06/27 11:46:36;;;;;;;12.13;2.42;;;31.40;99.90;;;;;;5042625;28;20124;-83
2022/06/27 11:49:07;;;;;;;7.17;2.10;;;31.70;99.90;;;;;;5042670;28;20032;-85
2022/06/27 11:51:38;;;;;;;11.45;2.35;;;32.00;99.90;;;;;;5031147;28;20261;-85
2022/06/27 11:54:15;;;;;;;11.75;2.63;;;32.20;99.50;;;;;;5028104;28;20128;-85
2022/06/27 11:56:53;;;;;;;12.45;2.47;;;32.40;95.40;;;;;;5043178;28;20021;-86
2022/06/27 11:59:19;;;;;;;11.55;2.20;;;32.50;94.30;;;;;;5042668;28;20562;-84
2022/06/27 12:01:59;;;;;;;8.23;2.80;;;32.70;96.10;;;;;;5041517;28;20390;-85
2022/06/27 12:04:33;;;;;;;11.23;2.70;;;33.00;93.60;;;;;;5042221;28;20119;-83
2022/06/27 12:07:09;;;;;;;7.38;2.90;;;34.20;92.70;;;;;;5019113;28;20045;-92
2022/06/27 12:09:48;;;;;;;12.60;2.78;;;36.30;90.50;;;;;;5025852;28;20033;-84
2022/06/27 12:12:21;;;;;;;14.15;3.15;;;37.10;87.70;;;;;;5035254;28;20108;-89
2022/06/27 12:14:51;;;;;;;12.32;2.70;;;37.60;85.50;;;;;;5032830;28;20412;-94
2022/06/27 12:17:18;;;;;;;16.35;3.20;;;37.80;85.30;;;;;;5030564;28;20049;-94
2022/06/27 12:19:45;;;;;;;13.25;2.72;;;38.60;82.90;;;;;;5037413;28;20028;-91
2022/06/27 12:22:12;;;;;;;10.13;2.78;;;38.40;82.60;;;;;;5048416;28;20769;-87
2022/06/27 12:24:39;;;;;;;11.57;2.80;;;38.10;80.70;;;;;;5043710;28;20029;-93
2022/06/27 12:27:05;;;;;;;15.20;3.00;;;38.90;81.40;;;;;;5043235;28;20644;-88
2022/06/27 12:29:31;;;;;;;13.80;3.25;;;38.70;80.00;;;;;;5046186;28;20068;-90
2022/06/27 12:31:57;;;;;;;14.68;3.65;;;38.90;79.20;;;;;;5008745;28;20022;-91
2022/06/27 12:34:23;;;;;;;28.75;3.08;;;39.00;78.90;;;;;;5022576;28;20071;-92
2022/06/27 12:36:49;;;;;;;13.63;3.38;;;39.30;78.40;;;;;;5025302;28;20084;-91
2022/06/27 12:39:14;;;;;;;8.07;2.60;;;39.20;78.30;;;;;;5018080;28;20032;-90
2022/06/27 12:41:41;;;;;;;18.63;5.90;;;38.50;78.30;;;;;;5051302;28;20029;-88
2022/06/27 12:44:09;;;;;;;15.90;3.95;;;38.40;80.80;;;;;;5045233;28;20022;-95
2022/06/27 12:46:36;;;;;;;14.23;3.58;;;39.70;77.50;;;;;;5031035;28;20025;-93
2022/06/27 12:49:02;;;;;;;17.33;3.35;;;39.30;77.70;;;;;;5033257;28;20361;-88
2022/06/27 12:51:29;;;;;;;14.90;2.90;;;39.80;78.10;;;;;;5034211;28;20029;-89
2022/06/27 12:53:55;;;;;;;10.38;3.40;;;41.50;78.50;;;;;;5034214;28;20096;-88
2022/06/27 12:56:22;;;;;;;13.77;3.55;;;42.00;74.60;;;;;;5045406;28;20028;-90
2022/06/27 12:58:48;;;;;;;17.25;4.65;;;41.90;74.30;;;;;;5048092;28;20028;-90